sensor_id;sensor_type;location;lat;lon;timestamp;P1;durP1;ratioP1;P2;durP2;ratioP2
38609;SDS011;24367;51.640;9.566;2023-01-15T00:00:57;3.58;;;2.20;;
38609;SDS011;24367;51.640;9.566;2023-01-15T00:03:24;4.03;;;1.42;;
38609;SDS011;24367;51.640;9.566;2023-01-15T00:05:50;4.22;;;0.85;;
38609;SDS011;24367;51.640;9.566;2023-01-15T00:08:17;4.82;;;0.77;;
38609;SDS011;24367;51.640;9.566;2023-01-15T00:10:43;3.40;;;0.73;;
38609;SDS011;24367;51.640;9.566;2023-01-15T00:13:10;0.52;;;0.40;;
38609;SDS011;24367;51.640;9.566;2023-01-15T00:15:36;0.70;;;0.35;;
38609;SDS011;24367;51.640;9.566;2023-01-15T00:18:04;1.27;;;0.70;;
38609;SDS011;24367;51.640;9.566;2023-01-15T00:20:31;3.72;;;0.88;;
38609;SDS011;24367;51.640;9.566;2023-01-15T00:22:57;2.42;;;0.80;;
38609;SDS011;24367;51.640;9.566;2023-01-15T00:25:23;4.40;;;0.77;;
38609;SDS011;24367;51.640;9.566;2023-01-15T00:28:07;1.80;;;0.95;;
38609;SDS011;24367;51.640;9.566;2023-01-15T00:30:38;2.03;;;0.77;;
38609;SDS011;24367;51.640;9.566;2023-01-15T00:33:07;3.65;;;0.70;;
38609;SDS011;24367;51.640;9.566;2023-01-15T00:35:34;1.52;;;0.63;;
38609;SDS011;24367;51.640;9.566;2023-01-15T00:38:00;3.15;;;0.80;;
38609;SDS011;24367;51.640;9.566;2023-01-15T00:40:28;2.17;;;0.80;;
38609;SDS011;24367;51.640;9.566;2023-01-15T00:42:55;1.27;;;0.60;;
38609;SDS011;24367;51.640;9.566;2023-01-15T00:45:21;2.30;;;0.70;;
38609;SDS011;24367;51.640;9.566;2023-01-15T00:47:48;1.23;;;0.68;;
38609;SDS011;24367;51.640;9.566;2023-01-15T00:50:16;0.93;;;0.52;;
38609;SDS011;24367;51.640;9.566;2023-01-15T00:52:42;1.65;;;0.70;;
38609;SDS011;24367;51.640;9.566;2023-01-15T00:55:09;1.40;;;0.65;;
38609;SDS011;24367;51.640;9.566;2023-01-15T00:57:35;1.27;;;0.60;;
38609;SDS011;24367;51.640;9.566;2023-01-15T01:00:02;1.35;;;0.50;;
38609;SDS011;24367;51.640;9.566;2023-01-15T01:02:30;1.25;;;0.60;;
38609;SDS011;24367;51.640;9.566;2023-01-15T01:04:56;6.80;;;0.88;;
38609;SDS011;24367;51.640;9.566;2023-01-15T01:07:24;1.77;;;0.60;;
38609;SDS011;24367;51.640;9.566;2023-01-15T01:09:50;4.30;;;0.50;;
38609;SDS011;24367;51.640;9.566;2023-01-15T01:12:18;1.42;;;0.60;;
38609;SDS011;24367;51.640;9.566;2023-01-15T01:14:45;2.20;;;0.70;;
38609;SDS011;24367;51.640;9.566;2023-01-15T01:17:12;1.13;;;0.50;;
38609;SDS011;24367;51.640;9.566;2023-01-15T01:19:38;2.38;;;0.60;;
38609;SDS011;24367;51.640;9.566;2023-01-15T01:22:06;2.30;;;0.50;;
38609;SDS011;24367;51.640;9.566;2023-01-15T01:24:34;1.60;;;0.50;;
38609;SDS011;24367;51.640;9.566;2023-01-15T01:27:00;1.80;;;0.70;;
38609;SDS011;24367;51.640;9.566;2023-01-15T01:29:27;2.67;;;0.88;;
38609;SDS011;24367;51.640;9.566;2023-01-15T01:31:53;1.40;;;0.68;;
38609;SDS011;24367;51.640;9.566;2023-01-15T01:34:19;1.25;;;0.63;;
38609;SDS011;24367;51.640;9.566;2023-01-15T01:36:46;1.00;;;0.52;;
38609;SDS011;24367;51.640;9.566;2023-01-15T01:39:13;1.35;;;0.63;;
38609;SDS011;24367;51.640;9.566;2023-01-15T01:41:42;1.77;;;0.70;;
38609;SDS011;24367;51.640;9.566;2023-01-15T01:47:09;1.05;;;0.60;;
38609;SDS011;24367;51.640;9.566;2023-01-15T01:49:39;1.65;;;0.70;;
38609;SDS011;24367;51.640;9.566;2023-01-15T01:52:08;0.70;;;0.50;;
38609;SDS011;24367;51.640;9.566;2023-01-15T01:54:38;3.70;;;0.50;;
38609;SDS011;24367;51.640;9.566;2023-01-15T01:57:06;1.95;;;0.63;;
38609;SDS011;24367;51.640;9.566;2023-01-15T01:59:33;2.03;;;0.57;;
38609;SDS011;24367;51.640;9.566;2023-01-15T02:02:01;2.90;;;0.90;;
38609;SDS011;24367;51.640;9.566;2023-01-15T02:04:29;1.05;;;0.60;;
38609;SDS011;24367;51.640;9.566;2023-01-15T02:06:57;0.85;;;0.40;;
38609;SDS011;24367;51.640;9.566;2023-01-15T02:09:24;0.85;;;0.50;;
38609;SDS011;24367;51.640;9.566;2023-01-15T02:11:50;1.08;;;0.52;;
38609;SDS011;24367;51.640;9.566;2023-01-15T02:14:21;0.98;;;0.45;;
38609;SDS011;24367;51.640;9.566;2023-01-15T02:16:54;1.25;;;0.60;;
38609;SDS011;24367;51.640;9.566;2023-01-15T02:19:27;1.25;;;0.70;;
38609;SDS011;24367;51.640;9.566;2023-01-15T02:21:59;1.33;;;0.50;;
38609;SDS011;24367;51.640;9.566;2023-01-15T02:24:30;2.65;;;0.60;;
38609;SDS011;24367;51.640;9.566;2023-01-15T02:27:08;1.15;;;0.57;;
38609;SDS011;24367;51.640;9.566;2023-01-15T02:29:48;1.02;;;0.80;;
38609;SDS011;24367;51.640;9.566;2023-01-15T02:32:20;1.05;;;0.50;;
38609;SDS011;24367;51.640;9.566;2023-01-15T02:34:54;0.90;;;0.50;;
38609;SDS011;24367;51.640;9.566;2023-01-15T02:37:24;1.33;;;0.60;;
38609;SDS011;24367;51.640;9.566;2023-01-15T02:39:52;1.42;;;0.70;;
38609;SDS011;24367;51.640;9.566;2023-01-15T02:42:23;1.25;;;0.60;;
38609;SDS011;24367;51.640;9.566;2023-01-15T02:44:51;1.35;;;0.68;;
38609;SDS011;24367;51.640;9.566;2023-01-15T02:47:21;1.48;;;0.70;;
38609;SDS011;24367;51.640;9.566;2023-01-15T02:49:50;1.25;;;0.70;;
38609;SDS011;24367;51.640;9.566;2023-01-15T02:52:19;2.45;;;0.60;;
38609;SDS011;24367;51.640;9.566;2023-01-15T02:54:49;1.30;;;0.70;;
38609;SDS011;24367;51.640;9.566;2023-01-15T02:57:17;0.70;;;0.40;;
38609;SDS011;24367;51.640;9.566;2023-01-15T03:02:20;1.75;;;0.60;;
38609;SDS011;24367;51.640;9.566;2023-01-15T03:04:49;0.88;;;0.50;;
38609;SDS011;24367;51.640;9.566;2023-01-15T03:07:20;1.65;;;0.60;;
38609;SDS011;24367;51.640;9.566;2023-01-15T03:09:50;1.67;;;0.50;;
38609;SDS011;24367;51.640;9.566;2023-01-15T03:12:18;0.80;;;0.43;;
38609;SDS011;24367;51.640;9.566;2023-01-15T03:14:51;1.20;;;0.50;;
38609;SDS011;24367;51.640;9.566;2023-01-15T03:17:27;1.65;;;0.55;;
38609;SDS011;24367;51.640;9.566;2023-01-15T03:19:58;1.15;;;0.68;;
38609;SDS011;24367;51.640;9.566;2023-01-15T03:22:32;1.23;;;0.65;;
38609;SDS011;24367;51.640;9.566;2023-01-15T03:25:00;1.17;;;0.40;;
38609;SDS011;24367;51.640;9.566;2023-01-15T03:27:34;0.95;;;0.50;;
38609;SDS011;24367;51.640;9.566;2023-01-15T03:30:05;1.02;;;0.50;;
38609;SDS011;24367;51.640;9.566;2023-01-15T03:32:33;1.15;;;0.60;;
38609;SDS011;24367;51.640;9.566;2023-01-15T03:35:03;1.33;;;0.50;;
38609;SDS011;24367;51.640;9.566;2023-01-15T03:37:31;1.70;;;0.75;;
38609;SDS011;24367;51.640;9.566;2023-01-15T03:39:57;1.00;;;0.40;;
38609;SDS011;24367;51.640;9.566;2023-01-15T03:42:28;1.13;;;0.50;;
38609;SDS011;24367;51.640;9.566;2023-01-15T03:45:05;1.13;;;0.50;;
38609;SDS011;24367;51.640;9.566;2023-01-15T03:47:38;0.82;;;0.50;;
38609;SDS011;24367;51.640;9.566;2023-01-15T03:50:12;0.75;;;0.40;;
38609;SDS011;24367;51.640;9.566;2023-01-15T03:52:44;1.17;;;0.60;;
38609;SDS011;24367;51.640;9.566;2023-01-15T03:55:16;0.70;;;0.35;;
38609;SDS011;24367;51.640;9.566;2023-01-15T03:57:54;0.88;;;0.50;;
38609;SDS011;24367;51.640;9.566;2023-01-15T04:00:25;1.23;;;0.52;;
38609;SDS011;24367;51.640;9.566;2023-01-15T04:02:56;2.05;;;0.68;;
38609;SDS011;24367;51.640;9.566;2023-01-15T04:05:26;1.48;;;0.50;;
38609;SDS011;24367;51.640;9.566;2023-01-15T04:07:53;0.93;;;0.55;;
38609;SDS011;24367;51.640;9.566;2023-01-15T04:10:20;0.90;;;0.50;;
38609;SDS011;24367;51.640;9.566;2023-01-15T04:12:48;1.02;;;0.50;;
38609;SDS011;24367;51.640;9.566;2023-01-15T04:15:16;0.77;;;0.40;;
38609;SDS011;24367;51.640;9.566;2023-01-15T04:17:45;0.80;;;0.50;;
38609;SDS011;24367;51.640;9.566;2023-01-15T04:20:12;0.80;;;0.35;;
38609;SDS011;24367;51.640;9.566;2023-01-15T04:22:41;1.00;;;0.50;;
38609;SDS011;24367;51.640;9.566;2023-01-15T04:25:08;1.20;;;0.50;;
38609;SDS011;24367;51.640;9.566;2023-01-15T04:27:35;1.05;;;0.50;;
38609;SDS011;24367;51.640;9.566;2023-01-15T04:30:02;1.00;;;0.52;;
38609;SDS011;24367;51.640;9.566;2023-01-15T04:32:28;1.05;;;0.50;;
38609;SDS011;24367;51.640;9.566;2023-01-15T04:34:56;0.90;;;0.40;;
38609;SDS011;24367;51.640;9.566;2023-01-15T04:37:23;0.90;;;0.47;;
38609;SDS011;24367;51.640;9.566;2023-01-15T04:39:49;1.05;;;0.50;;
38609;SDS011;24367;51.640;9.566;2023-01-15T04:42:15;0.93;;;0.50;;
38609;SDS011;24367;51.640;9.566;2023-01-15T04:44:59;1.13;;;0.53;;
38609;SDS011;24367;51.640;9.566;2023-01-15T04:47:25;1.00;;;0.60;;
38609;SDS011;24367;51.640;9.566;2023-01-15T04:49:55;1.05;;;0.45;;
38609;SDS011;24367;51.640;9.566;2023-01-15T04:52:22;0.73;;;0.40;;
38609;SDS011;24367;51.640;9.566;2023-01-15T04:54:49;0.40;;;0.30;;
38609;SDS011;24367;51.640;9.566;2023-01-15T04:57:15;0.85;;;0.55;;
38609;SDS011;24367;51.640;9.566;2023-01-15T04:59:41;0.75;;;0.40;;
38609;SDS011;24367;51.640;9.566;2023-01-15T05:02:08;0.70;;;0.40;;
38609;SDS011;24367;51.640;9.566;2023-01-15T05:04:34;0.52;;;0.30;;
38609;SDS011;24367;51.640;9.566;2023-01-15T05:07:02;0.57;;;0.35;;
38609;SDS011;24367;51.640;9.566;2023-01-15T05:09:29;0.57;;;0.40;;
38609;SDS011;24367;51.640;9.566;2023-01-15T05:11:56;0.80;;;0.45;;
38609;SDS011;24367;51.640;9.566;2023-01-15T05:14:23;0.70;;;0.40;;
38609;SDS011;24367;51.640;9.566;2023-01-15T05:16:49;0.95;;;0.50;;
38609;SDS011;24367;51.640;9.566;2023-01-15T05:19:15;0.80;;;0.40;;
38609;SDS011;24367;51.640;9.566;2023-01-15T05:21:42;0.88;;;0.50;;
38609;SDS011;24367;51.640;9.566;2023-01-15T05:24:11;1.10;;;0.60;;
38609;SDS011;24367;51.640;9.566;2023-01-15T05:26:39;0.80;;;0.40;;
38609;SDS011;24367;51.640;9.566;2023-01-15T05:29:06;0.40;;;0.30;;
38609;SDS011;24367;51.640;9.566;2023-01-15T05:31:32;0.90;;;0.50;;
38609;SDS011;24367;51.640;9.566;2023-01-15T05:33:59;0.70;;;0.40;;
38609;SDS011;24367;51.640;9.566;2023-01-15T05:36:26;1.08;;;0.50;;
38609;SDS011;24367;51.640;9.566;2023-01-15T05:38:54;1.17;;;0.40;;
38609;SDS011;24367;51.640;9.566;2023-01-15T05:41:25;1.67;;;0.50;;
38609;SDS011;24367;51.640;9.566;2023-01-15T05:44:09;0.77;;;0.40;;
38609;SDS011;24367;51.640;9.566;2023-01-15T05:46:37;0.65;;;0.50;;
38609;SDS011;24367;51.640;9.566;2023-01-15T05:49:05;1.00;;;0.50;;
38609;SDS011;24367;51.640;9.566;2023-01-15T05:51:33;0.68;;;0.40;;
38609;SDS011;24367;51.640;9.566;2023-01-15T05:54:00;0.90;;;0.50;;
38609;SDS011;24367;51.640;9.566;2023-01-15T05:56:28;0.95;;;0.60;;
38609;SDS011;24367;51.640;9.566;2023-01-15T05:58:54;1.33;;;0.40;;
38609;SDS011;24367;51.640;9.566;2023-01-15T06:01:21;1.80;;;0.50;;
38609;SDS011;24367;51.640;9.566;2023-01-15T06:03:47;0.63;;;0.40;;
38609;SDS011;24367;51.640;9.566;2023-01-15T06:06:14;0.60;;;0.40;;
38609;SDS011;24367;51.640;9.566;2023-01-15T06:08:43;1.05;;;0.47;;
38609;SDS011;24367;51.640;9.566;2023-01-15T06:11:09;0.90;;;0.50;;
38609;SDS011;24367;51.640;9.566;2023-01-15T06:13:38;0.57;;;0.30;;
38609;SDS011;24367;51.640;9.566;2023-01-15T06:16:04;1.13;;;0.50;;
38609;SDS011;24367;51.640;9.566;2023-01-15T06:18:31;1.30;;;0.50;;
38609;SDS011;24367;51.640;9.566;2023-01-15T06:21:01;1.10;;;0.50;;
38609;SDS011;24367;51.640;9.566;2023-01-15T06:23:28;0.90;;;0.50;;
38609;SDS011;24367;51.640;9.566;2023-01-15T06:25:58;0.60;;;0.40;;
38609;SDS011;24367;51.640;9.566;2023-01-15T06:28:24;0.93;;;0.40;;
38609;SDS011;24367;51.640;9.566;2023-01-15T06:30:52;0.52;;;0.40;;
38609;SDS011;24367;51.640;9.566;2023-01-15T06:33:19;0.68;;;0.40;;
38609;SDS011;24367;51.640;9.566;2023-01-15T06:35:45;1.00;;;0.45;;
38609;SDS011;24367;51.640;9.566;2023-01-15T06:38:11;0.88;;;0.50;;
38609;SDS011;24367;51.640;9.566;2023-01-15T06:40:38;0.68;;;0.45;;
38609;SDS011;24367;51.640;9.566;2023-01-15T06:43:04;0.45;;;0.30;;
38609;SDS011;24367;51.640;9.566;2023-01-15T06:45:49;0.90;;;0.40;;
38609;SDS011;24367;51.640;9.566;2023-01-15T06:48:46;0.85;;;0.57;;
38609;SDS011;24367;51.640;9.566;2023-01-15T06:51:12;0.40;;;0.30;;
38609;SDS011;24367;51.640;9.566;2023-01-15T06:53:42;0.80;;;0.50;;
38609;SDS011;24367;51.640;9.566;2023-01-15T06:56:09;1.38;;;0.60;;
38609;SDS011;24367;51.640;9.566;2023-01-15T06:58:35;0.80;;;0.40;;
38609;SDS011;24367;51.640;9.566;2023-01-15T07:01:05;1.48;;;0.50;;
38609;SDS011;24367;51.640;9.566;2023-01-15T07:03:33;0.43;;;0.30;;
38609;SDS011;24367;51.640;9.566;2023-01-15T07:06:05;0.73;;;0.40;;
38609;SDS011;24367;51.640;9.566;2023-01-15T07:08:32;0.70;;;0.40;;
38609;SDS011;24367;51.640;9.566;2023-01-15T07:11:00;0.73;;;0.32;;
38609;SDS011;24367;51.640;9.566;2023-01-15T07:13:27;0.82;;;0.45;;
38609;SDS011;24367;51.640;9.566;2023-01-15T07:15:54;0.88;;;0.57;;
38609;SDS011;24367;51.640;9.566;2023-01-15T07:18:22;0.70;;;0.40;;
38609;SDS011;24367;51.640;9.566;2023-01-15T07:20:52;0.82;;;0.50;;
38609;SDS011;24367;51.640;9.566;2023-01-15T07:23:21;0.68;;;0.32;;
38609;SDS011;24367;51.640;9.566;2023-01-15T07:25:48;0.70;;;0.45;;
38609;SDS011;24367;51.640;9.566;2023-01-15T07:28:15;0.80;;;0.40;;
38609;SDS011;24367;51.640;9.566;2023-01-15T07:30:41;0.63;;;0.40;;
38609;SDS011;24367;51.640;9.566;2023-01-15T07:33:08;1.05;;;0.63;;
38609;SDS011;24367;51.640;9.566;2023-01-15T07:35:34;0.70;;;0.40;;
38609;SDS011;24367;51.640;9.566;2023-01-15T07:38:02;0.75;;;0.40;;
38609;SDS011;24367;51.640;9.566;2023-01-15T07:40:29;1.98;;;0.40;;
38609;SDS011;24367;51.640;9.566;2023-01-15T07:42:57;1.27;;;0.50;;
38609;SDS011;24367;51.640;9.566;2023-01-15T07:45:41;0.73;;;0.38;;
38609;SDS011;24367;51.640;9.566;2023-01-15T07:48:26;1.17;;;0.60;;
38609;SDS011;24367;51.640;9.566;2023-01-15T07:51:10;0.80;;;0.45;;
38609;SDS011;24367;51.640;9.566;2023-01-15T07:53:36;1.58;;;0.52;;
38609;SDS011;24367;51.640;9.566;2023-01-15T07:56:04;1.10;;;0.50;;
38609;SDS011;24367;51.640;9.566;2023-01-15T07:58:32;3.50;;;0.63;;
38609;SDS011;24367;51.640;9.566;2023-01-15T08:00:58;2.67;;;0.65;;
38609;SDS011;24367;51.640;9.566;2023-01-15T08:03:24;0.73;;;0.43;;
38609;SDS011;24367;51.640;9.566;2023-01-15T08:05:51;1.20;;;0.50;;
38609;SDS011;24367;51.640;9.566;2023-01-15T08:08:17;1.10;;;0.50;;
38609;SDS011;24367;51.640;9.566;2023-01-15T08:10:44;0.82;;;0.50;;
38609;SDS011;24367;51.640;9.566;2023-01-15T08:13:25;1.02;;;0.50;;
38609;SDS011;24367;51.640;9.566;2023-01-15T08:16:09;0.75;;;0.45;;
38609;SDS011;24367;51.640;9.566;2023-01-15T08:18:36;1.65;;;0.60;;
38609;SDS011;24367;51.640;9.566;2023-01-15T08:21:02;1.08;;;0.60;;
38609;SDS011;24367;51.640;9.566;2023-01-15T08:23:29;1.00;;;0.60;;
38609;SDS011;24367;51.640;9.566;2023-01-15T08:25:57;1.25;;;0.50;;
38609;SDS011;24367;51.640;9.566;2023-01-15T08:28:25;2.70;;;0.50;;
38609;SDS011;24367;51.640;9.566;2023-01-15T08:30:52;0.68;;;0.43;;
38609;SDS011;24367;51.640;9.566;2023-01-15T08:33:19;1.25;;;0.45;;
38609;SDS011;24367;51.640;9.566;2023-01-15T08:35:46;1.02;;;0.47;;
38609;SDS011;24367;51.640;9.566;2023-01-15T08:38:12;1.05;;;0.38;;
38609;SDS011;24367;51.640;9.566;2023-01-15T08:40:38;1.02;;;0.60;;
38609;SDS011;24367;51.640;9.566;2023-01-15T08:43:19;0.85;;;0.50;;
38609;SDS011;24367;51.640;9.566;2023-01-15T08:45:47;0.65;;;0.40;;
38609;SDS011;24367;51.640;9.566;2023-01-15T08:48:13;1.33;;;0.50;;
38609;SDS011;24367;51.640;9.566;2023-01-15T08:50:40;1.00;;;0.50;;
38609;SDS011;24367;51.640;9.566;2023-01-15T08:53:06;1.25;;;0.50;;
38609;SDS011;24367;51.640;9.566;2023-01-15T08:55:33;1.00;;;0.60;;
38609;SDS011;24367;51.640;9.566;2023-01-15T08:57:59;1.30;;;0.40;;
38609;SDS011;24367;51.640;9.566;2023-01-15T09:00:26;0.98;;;0.40;;
38609;SDS011;24367;51.640;9.566;2023-01-15T09:02:54;1.10;;;0.50;;
38609;SDS011;24367;51.640;9.566;2023-01-15T09:05:20;0.60;;;0.40;;
38609;SDS011;24367;51.640;9.566;2023-01-15T09:07:46;0.90;;;0.50;;
38609;SDS011;24367;51.640;9.566;2023-01-15T09:10:13;0.70;;;0.40;;
38609;SDS011;24367;51.640;9.566;2023-01-15T09:12:41;1.15;;;0.40;;
38609;SDS011;24367;51.640;9.566;2023-01-15T09:15:07;1.60;;;0.70;;
38609;SDS011;24367;51.640;9.566;2023-01-15T09:17:35;0.50;;;0.40;;
38609;SDS011;24367;51.640;9.566;2023-01-15T09:20:07;1.10;;;0.70;;
38609;SDS011;24367;51.640;9.566;2023-01-15T09:22:35;3.45;;;0.60;;
38609;SDS011;24367;51.640;9.566;2023-01-15T09:25:02;1.42;;;0.40;;
38609;SDS011;24367;51.640;9.566;2023-01-15T09:27:28;1.05;;;0.50;;
38609;SDS011;24367;51.640;9.566;2023-01-15T09:29:58;1.02;;;0.50;;
38609;SDS011;24367;51.640;9.566;2023-01-15T09:32:24;0.70;;;0.40;;
38609;SDS011;24367;51.640;9.566;2023-01-15T09:34:50;1.23;;;0.65;;
38609;SDS011;24367;51.640;9.566;2023-01-15T09:37:18;0.98;;;0.60;;
38609;SDS011;24367;51.640;9.566;2023-01-15T09:39:45;1.20;;;0.70;;
38609;SDS011;24367;51.640;9.566;2023-01-15T09:42:16;2.15;;;0.50;;
38609;SDS011;24367;51.640;9.566;2023-01-15T09:44:58;1.77;;;0.60;;
38609;SDS011;24367;51.640;9.566;2023-01-15T09:47:33;1.85;;;0.40;;
38609;SDS011;24367;51.640;9.566;2023-01-15T09:50:20;1.02;;;0.43;;
38609;SDS011;24367;51.640;9.566;2023-01-15T09:55:59;2.08;;;0.60;;
38609;SDS011;24367;51.640;9.566;2023-01-15T09:58:30;1.48;;;0.70;;
38609;SDS011;24367;51.640;9.566;2023-01-15T10:00:58;0.90;;;0.55;;
38609;SDS011;24367;51.640;9.566;2023-01-15T10:03:27;2.45;;;0.85;;
38609;SDS011;24367;51.640;9.566;2023-01-15T10:05:58;3.97;;;1.05;;
38609;SDS011;24367;51.640;9.566;2023-01-15T10:08:35;3.40;;;0.90;;
38609;SDS011;24367;51.640;9.566;2023-01-15T10:11:05;4.93;;;0.80;;
38609;SDS011;24367;51.640;9.566;2023-01-15T10:13:46;2.05;;;0.70;;
38609;SDS011;24367;51.640;9.566;2023-01-15T10:16:17;3.03;;;0.88;;
38609;SDS011;24367;51.640;9.566;2023-01-15T10:18:45;2.85;;;0.88;;
38609;SDS011;24367;51.640;9.566;2023-01-15T10:21:18;2.10;;;0.73;;
38609;SDS011;24367;51.640;9.566;2023-01-15T10:23:55;4.15;;;0.88;;
38609;SDS011;24367;51.640;9.566;2023-01-15T10:26:31;2.35;;;0.95;;
38609;SDS011;24367;51.640;9.566;2023-01-15T10:29:03;4.68;;;1.00;;
38609;SDS011;24367;51.640;9.566;2023-01-15T10:31:37;2.00;;;1.00;;
38609;SDS011;24367;51.640;9.566;2023-01-15T10:34:18;4.05;;;1.13;;
38609;SDS011;24367;51.640;9.566;2023-01-15T10:37:07;3.50;;;1.00;;
38609;SDS011;24367;51.640;9.566;2023-01-15T10:39:37;5.10;;;1.00;;
38609;SDS011;24367;51.640;9.566;2023-01-15T10:42:14;3.08;;;1.00;;
38609;SDS011;24367;51.640;9.566;2023-01-15T10:44:48;4.32;;;0.95;;
38609;SDS011;24367;51.640;9.566;2023-01-15T10:47:21;3.10;;;0.95;;
38609;SDS011;24367;51.640;9.566;2023-01-15T10:49:51;4.25;;;1.02;;
38609;SDS011;24367;51.640;9.566;2023-01-15T10:52:21;3.97;;;1.33;;
38609;SDS011;24367;51.640;9.566;2023-01-15T10:54:50;3.10;;;0.98;;
38609;SDS011;24367;51.640;9.566;2023-01-15T10:57:22;3.75;;;1.00;;
38609;SDS011;24367;51.640;9.566;2023-01-15T10:59:55;3.05;;;0.90;;
38609;SDS011;24367;51.640;9.566;2023-01-15T11:02:24;2.47;;;0.82;;
38609;SDS011;24367;51.640;9.566;2023-01-15T11:04:53;3.83;;;1.00;;
38609;SDS011;24367;51.640;9.566;2023-01-15T11:07:20;2.65;;;0.90;;
38609;SDS011;24367;51.640;9.566;2023-01-15T11:09:47;4.35;;;1.10;;
38609;SDS011;24367;51.640;9.566;2023-01-15T11:12:23;7.95;;;1.20;;
38609;SDS011;24367;51.640;9.566;2023-01-15T11:15:24;3.17;;;0.98;;
38609;SDS011;24367;51.640;9.566;2023-01-15T11:18:12;3.03;;;0.85;;
38609;SDS011;24367;51.640;9.566;2023-01-15T11:20:57;3.90;;;1.40;;
38609;SDS011;24367;51.640;9.566;2023-01-15T11:23:25;3.90;;;1.13;;
38609;SDS011;24367;51.640;9.566;2023-01-15T11:25:52;4.72;;;1.20;;
38609;SDS011;24367;51.640;9.566;2023-01-15T11:28:29;3.83;;;0.88;;
38609;SDS011;24367;51.640;9.566;2023-01-15T11:30:59;3.22;;;1.00;;
38609;SDS011;24367;51.640;9.566;2023-01-15T11:33:26;3.90;;;1.33;;
38609;SDS011;24367;51.640;9.566;2023-01-15T11:35:54;2.58;;;1.17;;
38609;SDS011;24367;51.640;9.566;2023-01-15T11:38:22;3.63;;;0.90;;
38609;SDS011;24367;51.640;9.566;2023-01-15T11:40:50;2.92;;;0.90;;
38609;SDS011;24367;51.640;9.566;2023-01-15T11:43:18;3.72;;;1.20;;
38609;SDS011;24367;51.640;9.566;2023-01-15T11:46:26;2.58;;;0.80;;
38609;SDS011;24367;51.640;9.566;2023-01-15T11:49:14;3.38;;;1.08;;
38609;SDS011;24367;51.640;9.566;2023-01-15T11:52:00;5.68;;;1.35;;
38609;SDS011;24367;51.640;9.566;2023-01-15T11:54:27;4.95;;;0.90;;
38609;SDS011;24367;51.640;9.566;2023-01-15T11:56:55;5.47;;;0.90;;
38609;SDS011;24367;51.640;9.566;2023-01-15T11:59:21;4.93;;;1.02;;
38609;SDS011;24367;51.640;9.566;2023-01-15T12:01:50;3.50;;;0.90;;
38609;SDS011;24367;51.640;9.566;2023-01-15T12:06:56;5.35;;;1.13;;
38609;SDS011;24367;51.640;9.566;2023-01-15T12:09:24;4.85;;;1.00;;
38609;SDS011;24367;51.640;9.566;2023-01-15T12:11:56;7.15;;;1.02;;
38609;SDS011;24367;51.640;9.566;2023-01-15T12:14:32;4.10;;;0.90;;
38609;SDS011;24367;51.640;9.566;2023-01-15T12:17:08;3.20;;;0.93;;
38609;SDS011;24367;51.640;9.566;2023-01-15T12:19:41;2.85;;;1.00;;
38609;SDS011;24367;51.640;9.566;2023-01-15T12:22:12;4.63;;;1.20;;
38609;SDS011;24367;51.640;9.566;2023-01-15T12:24:50;3.90;;;0.90;;
38609;SDS011;24367;51.640;9.566;2023-01-15T12:27:38;2.97;;;0.98;;
38609;SDS011;24367;51.640;9.566;2023-01-15T12:30:16;3.17;;;1.20;;
38609;SDS011;24367;51.640;9.566;2023-01-15T12:32:47;2.70;;;0.98;;
38609;SDS011;24367;51.640;9.566;2023-01-15T12:35:17;2.88;;;0.98;;
38609;SDS011;24367;51.640;9.566;2023-01-15T12:37:49;5.75;;;1.35;;
38609;SDS011;24367;51.640;9.566;2023-01-15T12:40:19;5.95;;;0.95;;
38609;SDS011;24367;51.640;9.566;2023-01-15T12:42:48;2.75;;;0.80;;
38609;SDS011;24367;51.640;9.566;2023-01-15T12:45:44;3.95;;;1.23;;
38609;SDS011;24367;51.640;9.566;2023-01-15T12:48:15;11.48;;;1.48;;
38609;SDS011;24367;51.640;9.566;2023-01-15T12:50:46;6.10;;;1.50;;
38609;SDS011;24367;51.640;9.566;2023-01-15T12:53:15;5.70;;;1.20;;
38609;SDS011;24367;51.640;9.566;2023-01-15T12:55:45;6.55;;;1.58;;
38609;SDS011;24367;51.640;9.566;2023-01-15T12:58:17;4.13;;;1.30;;
38609;SDS011;24367;51.640;9.566;2023-01-15T13:00:46;7.10;;;1.40;;
38609;SDS011;24367;51.640;9.566;2023-01-15T13:03:21;4.57;;;0.90;;
38609;SDS011;24367;51.640;9.566;2023-01-15T13:05:50;4.03;;;1.50;;
38609;SDS011;24367;51.640;9.566;2023-01-15T13:08:19;3.65;;;1.25;;
38609;SDS011;24367;51.640;9.566;2023-01-15T13:10:48;3.95;;;1.33;;
38609;SDS011;24367;51.640;9.566;2023-01-15T13:13:16;3.28;;;1.05;;
38609;SDS011;24367;51.640;9.566;2023-01-15T13:15:59;3.20;;;0.90;;
38609;SDS011;24367;51.640;9.566;2023-01-15T13:18:33;3.38;;;1.08;;
38609;SDS011;24367;51.640;9.566;2023-01-15T13:21:04;3.03;;;1.17;;
38609;SDS011;24367;51.640;9.566;2023-01-15T13:23:37;3.75;;;1.00;;
38609;SDS011;24367;51.640;9.566;2023-01-15T13:26:15;2.88;;;1.13;;
38609;SDS011;24367;51.640;9.566;2023-01-15T13:28:51;3.38;;;1.42;;
38609;SDS011;24367;51.640;9.566;2023-01-15T13:31:42;4.20;;;1.17;;
38609;SDS011;24367;51.640;9.566;2023-01-15T13:34:33;3.67;;;1.00;;
38609;SDS011;24367;51.640;9.566;2023-01-15T13:37:02;2.85;;;0.80;;
38609;SDS011;24367;51.640;9.566;2023-01-15T13:39:32;3.95;;;1.10;;
38609;SDS011;24367;51.640;9.566;2023-01-15T13:42:02;6.03;;;1.40;;
38609;SDS011;24367;51.640;9.566;2023-01-15T13:44:47;3.65;;;1.23;;
38609;SDS011;24367;51.640;9.566;2023-01-15T13:47:17;2.85;;;1.17;;
38609;SDS011;24367;51.640;9.566;2023-01-15T13:49:47;3.58;;;1.00;;
38609;SDS011;24367;51.640;9.566;2023-01-15T13:52:18;2.20;;;0.90;;
38609;SDS011;24367;51.640;9.566;2023-01-15T13:54:47;3.35;;;0.90;;
38609;SDS011;24367;51.640;9.566;2023-01-15T13:57:20;2.90;;;1.05;;
38609;SDS011;24367;51.640;9.566;2023-01-15T13:59:48;3.45;;;1.25;;
38609;SDS011;24367;51.640;9.566;2023-01-15T14:02:25;3.53;;;1.30;;
38609;SDS011;24367;51.640;9.566;2023-01-15T14:04:54;4.07;;;1.13;;
38609;SDS011;24367;51.640;9.566;2023-01-15T14:07:29;3.28;;;1.08;;
38609;SDS011;24367;51.640;9.566;2023-01-15T14:10:06;3.35;;;1.33;;
38609;SDS011;24367;51.640;9.566;2023-01-15T14:12:35;1.98;;;0.80;;
38609;SDS011;24367;51.640;9.566;2023-01-15T14:17:54;3.50;;;1.20;;
38609;SDS011;24367;51.640;9.566;2023-01-15T14:20:33;2.22;;;0.80;;
38609;SDS011;24367;51.640;9.566;2023-01-15T14:23:07;2.90;;;1.05;;
38609;SDS011;24367;51.640;9.566;2023-01-15T14:26:01;1.67;;;0.80;;
38609;SDS011;24367;51.640;9.566;2023-01-15T14:28:47;3.67;;;1.00;;
38609;SDS011;24367;51.640;9.566;2023-01-15T14:31:22;2.70;;;1.13;;
38609;SDS011;24367;51.640;9.566;2023-01-15T14:33:56;2.05;;;0.95;;
38609;SDS011;24367;51.640;9.566;2023-01-15T14:36:36;2.78;;;0.98;;
38609;SDS011;24367;51.640;9.566;2023-01-15T14:39:04;2.28;;;0.75;;
38609;SDS011;24367;51.640;9.566;2023-01-15T14:41:33;1.55;;;0.93;;
38609;SDS011;24367;51.640;9.566;2023-01-15T14:44:24;2.38;;;1.02;;
38609;SDS011;24367;51.640;9.566;2023-01-15T14:46:54;2.30;;;1.08;;
38609;SDS011;24367;51.640;9.566;2023-01-15T14:49:27;2.67;;;1.33;;
38609;SDS011;24367;51.640;9.566;2023-01-15T14:51:55;2.40;;;0.80;;
38609;SDS011;24367;51.640;9.566;2023-01-15T14:54:23;2.35;;;1.08;;
38609;SDS011;24367;51.640;9.566;2023-01-15T14:56:51;1.40;;;0.73;;
38609;SDS011;24367;51.640;9.566;2023-01-15T14:59:20;3.80;;;0.95;;
38609;SDS011;24367;51.640;9.566;2023-01-15T15:01:50;1.42;;;0.60;;
38609;SDS011;24367;51.640;9.566;2023-01-15T15:04:18;3.20;;;1.15;;
38609;SDS011;24367;51.640;9.566;2023-01-15T15:06:49;4.15;;;0.98;;
38609;SDS011;24367;51.640;9.566;2023-01-15T15:09:21;5.88;;;1.00;;
38609;SDS011;24367;51.640;9.566;2023-01-15T15:11:52;1.55;;;0.73;;
38609;SDS011;24367;51.640;9.566;2023-01-15T15:14:37;3.22;;;0.77;;
38609;SDS011;24367;51.640;9.566;2023-01-15T15:17:05;2.42;;;0.88;;
38609;SDS011;24367;51.640;9.566;2023-01-15T15:19:39;2.17;;;0.90;;
38609;SDS011;24367;51.640;9.566;2023-01-15T15:22:09;4.03;;;1.08;;